sensor_id;sensor_type;location;lat;lon;timestamp;P1;durP1;ratioP1;P2;durP2;ratioP2
12597;SDS011;6364;53.590;9.956;2022-10-31T00:01:24;61.42;;;32.22;;
12597;SDS011;6364;53.590;9.956;2022-10-31T00:03:54;63.53;;;31.83;;
12597;SDS011;6364;53.590;9.956;2022-10-31T00:06:20;55.78;;;32.90;;
12597;SDS011;6364;53.590;9.956;2022-10-31T00:08:47;56.97;;;30.75;;
12597;SDS011;6364;53.590;9.956;2022-10-31T00:11:12;52.75;;;30.70;;
12597;SDS011;6364;53.590;9.956;2022-10-31T00:13:38;59.15;;;28.75;;
12597;SDS011;6364;53.590;9.956;2022-10-31T00:16:03;52.25;;;29.52;;
12597;SDS011;6364;53.590;9.956;2022-10-31T00:18:28;49.33;;;28.55;;
12597;SDS011;6364;53.590;9.956;2022-10-31T00:21:00;54.13;;;31.05;;
12597;SDS011;6364;53.590;9.956;2022-10-31T00:23:26;55.22;;;28.85;;
12597;SDS011;6364;53.590;9.956;2022-10-31T00:25:52;47.65;;;28.67;;
12597;SDS011;6364;53.590;9.956;2022-10-31T00:28:17;54.78;;;29.42;;
12597;SDS011;6364;53.590;9.956;2022-10-31T00:30:42;51.75;;;29.58;;
12597;SDS011;6364;53.590;9.956;2022-10-31T00:33:08;56.70;;;29.02;;
12597;SDS011;6364;53.590;9.956;2022-10-31T00:35:33;50.50;;;29.77;;
12597;SDS011;6364;53.590;9.956;2022-10-31T00:37:58;53.42;;;29.38;;
12597;SDS011;6364;53.590;9.956;2022-10-31T00:40:24;49.33;;;28.15;;
12597;SDS011;6364;53.590;9.956;2022-10-31T00:42:49;48.53;;;27.83;;
12597;SDS011;6364;53.590;9.956;2022-10-31T00:45:14;47.60;;;28.83;;
12597;SDS011;6364;53.590;9.956;2022-10-31T00:47:40;43.50;;;27.05;;
12597;SDS011;6364;53.590;9.956;2022-10-31T00:50:05;44.70;;;25.83;;
12597;SDS011;6364;53.590;9.956;2022-10-31T00:52:31;39.05;;;24.92;;
12597;SDS011;6364;53.590;9.956;2022-10-31T00:54:56;46.67;;;27.05;;
12597;SDS011;6364;53.590;9.956;2022-10-31T00:57:21;53.25;;;27.58;;
12597;SDS011;6364;53.590;9.956;2022-10-31T00:59:47;54.35;;;28.48;;
12597;SDS011;6364;53.590;9.956;2022-10-31T01:02:12;54.88;;;29.60;;
12597;SDS011;6364;53.590;9.956;2022-10-31T01:04:37;52.53;;;28.65;;
12597;SDS011;6364;53.590;9.956;2022-10-31T01:07:03;44.85;;;26.58;;
12597;SDS011;6364;53.590;9.956;2022-10-31T01:09:28;56.15;;;30.20;;
12597;SDS011;6364;53.590;9.956;2022-10-31T01:11:53;55.45;;;29.70;;
12597;SDS011;6364;53.590;9.956;2022-10-31T01:14:19;53.67;;;30.40;;
12597;SDS011;6364;53.590;9.956;2022-10-31T01:16:44;55.83;;;30.83;;
12597;SDS011;6364;53.590;9.956;2022-10-31T01:19:09;62.58;;;33.13;;
12597;SDS011;6364;53.590;9.956;2022-10-31T01:21:34;62.60;;;33.35;;
12597;SDS011;6364;53.590;9.956;2022-10-31T01:24:00;65.28;;;33.80;;
12597;SDS011;6364;53.590;9.956;2022-10-31T01:26:28;68.18;;;34.35;;
12597;SDS011;6364;53.590;9.956;2022-10-31T01:28:59;72.05;;;37.00;;
12597;SDS011;6364;53.590;9.956;2022-10-31T01:31:27;71.15;;;37.92;;
12597;SDS011;6364;53.590;9.956;2022-10-31T01:33:53;72.63;;;38.50;;
12597;SDS011;6364;53.590;9.956;2022-10-31T01:36:20;71.90;;;39.03;;
12597;SDS011;6364;53.590;9.956;2022-10-31T01:38:47;72.80;;;39.20;;
12597;SDS011;6364;53.590;9.956;2022-10-31T01:41:14;76.68;;;38.67;;
12597;SDS011;6364;53.590;9.956;2022-10-31T01:43:41;75.10;;;37.95;;
12597;SDS011;6364;53.590;9.956;2022-10-31T01:46:19;72.10;;;36.20;;
12597;SDS011;6364;53.590;9.956;2022-10-31T01:48:49;66.25;;;36.72;;
12597;SDS011;6364;53.590;9.956;2022-10-31T01:51:16;68.15;;;37.97;;
12597;SDS011;6364;53.590;9.956;2022-10-31T01:53:42;63.22;;;34.78;;
12597;SDS011;6364;53.590;9.956;2022-10-31T01:56:10;65.38;;;34.17;;
12597;SDS011;6364;53.590;9.956;2022-10-31T01:58:35;72.95;;;34.42;;
12597;SDS011;6364;53.590;9.956;2022-10-31T02:01:00;61.65;;;34.50;;
12597;SDS011;6364;53.590;9.956;2022-10-31T02:03:26;59.75;;;35.05;;
12597;SDS011;6364;53.590;9.956;2022-10-31T02:05:53;61.50;;;34.97;;
12597;SDS011;6364;53.590;9.956;2022-10-31T02:10:55;61.65;;;33.40;;
12597;SDS011;6364;53.590;9.956;2022-10-31T02:13:21;61.88;;;33.95;;
12597;SDS011;6364;53.590;9.956;2022-10-31T02:15:48;57.72;;;33.80;;
12597;SDS011;6364;53.590;9.956;2022-10-31T02:18:17;61.45;;;33.28;;
12597;SDS011;6364;53.590;9.956;2022-10-31T02:37:10;62.88;;;34.80;;
12597;SDS011;6364;53.590;9.956;2022-10-31T02:45:12;71.07;;;38.78;;
12597;SDS011;6364;53.590;9.956;2022-10-31T02:47:39;81.47;;;38.45;;
12597;SDS011;6364;53.590;9.956;2022-10-31T02:50:06;85.05;;;38.88;;
12597;SDS011;6364;53.590;9.956;2022-10-31T02:52:35;75.72;;;38.90;;
12597;SDS011;6364;53.590;9.956;2022-10-31T02:57:52;84.82;;;40.40;;
12597;SDS011;6364;53.590;9.956;2022-10-31T03:00:42;84.25;;;40.03;;
12597;SDS011;6364;53.590;9.956;2022-10-31T03:06:23;89.85;;;40.58;;
12597;SDS011;6364;53.590;9.956;2022-10-31T03:08:55;83.40;;;40.67;;
12597;SDS011;6364;53.590;9.956;2022-10-31T03:11:29;84.60;;;40.25;;
12597;SDS011;6364;53.590;9.956;2022-10-31T03:14:09;89.30;;;41.28;;
12597;SDS011;6364;53.590;9.956;2022-10-31T03:21:48;84.78;;;41.42;;
12597;SDS011;6364;53.590;9.956;2022-10-31T03:24:24;78.82;;;40.28;;
12597;SDS011;6364;53.590;9.956;2022-10-31T03:26:56;87.00;;;40.58;;
12597;SDS011;6364;53.590;9.956;2022-10-31T03:29:24;86.70;;;39.40;;
12597;SDS011;6364;53.590;9.956;2022-10-31T03:31:53;89.97;;;39.67;;
12597;SDS011;6364;53.590;9.956;2022-10-31T03:34:21;94.05;;;40.47;;
12597;SDS011;6364;53.590;9.956;2022-10-31T03:36:48;91.40;;;39.55;;
12597;SDS011;6364;53.590;9.956;2022-10-31T03:39:15;97.13;;;41.17;;
12597;SDS011;6364;53.590;9.956;2022-10-31T03:41:43;94.45;;;42.25;;
12597;SDS011;6364;53.590;9.956;2022-10-31T03:44:12;105.43;;;43.42;;
12597;SDS011;6364;53.590;9.956;2022-10-31T03:46:41;89.50;;;43.13;;
12597;SDS011;6364;53.590;9.956;2022-10-31T03:49:07;96.00;;;42.72;;
12597;SDS011;6364;53.590;9.956;2022-10-31T03:54:09;97.50;;;43.53;;
12597;SDS011;6364;53.590;9.956;2022-10-31T03:56:43;99.82;;;44.47;;
12597;SDS011;6364;53.590;9.956;2022-10-31T03:59:17;93.95;;;44.60;;
12597;SDS011;6364;53.590;9.956;2022-10-31T04:01:47;100.78;;;44.00;;
12597;SDS011;6364;53.590;9.956;2022-10-31T04:04:15;92.68;;;44.65;;
12597;SDS011;6364;53.590;9.956;2022-10-31T04:06:41;102.75;;;44.22;;
12597;SDS011;6364;53.590;9.956;2022-10-31T04:09:07;106.97;;;46.45;;
12597;SDS011;6364;53.590;9.956;2022-10-31T04:11:38;106.15;;;44.30;;
12597;SDS011;6364;53.590;9.956;2022-10-31T04:14:10;106.63;;;45.03;;
12597;SDS011;6364;53.590;9.956;2022-10-31T04:16:36;98.10;;;44.17;;
12597;SDS011;6364;53.590;9.956;2022-10-31T04:19:04;100.78;;;44.72;;
12597;SDS011;6364;53.590;9.956;2022-10-31T04:21:29;112.68;;;45.50;;
12597;SDS011;6364;53.590;9.956;2022-10-31T04:23:55;107.63;;;44.42;;
12597;SDS011;6364;53.590;9.956;2022-10-31T04:26:21;95.65;;;43.38;;
12597;SDS011;6364;53.590;9.956;2022-10-31T04:28:46;104.45;;;45.17;;
12597;SDS011;6364;53.590;9.956;2022-10-31T04:31:11;99.03;;;44.75;;
12597;SDS011;6364;53.590;9.956;2022-10-31T04:33:37;113.53;;;44.50;;
12597;SDS011;6364;53.590;9.956;2022-10-31T04:36:03;92.85;;;44.03;;
12597;SDS011;6364;53.590;9.956;2022-10-31T04:38:29;92.20;;;44.75;;
12597;SDS011;6364;53.590;9.956;2022-10-31T04:40:54;102.85;;;44.70;;
12597;SDS011;6364;53.590;9.956;2022-10-31T04:43:20;105.95;;;43.67;;
12597;SDS011;6364;53.590;9.956;2022-10-31T04:45:45;103.85;;;45.63;;
12597;SDS011;6364;53.590;9.956;2022-10-31T04:48:10;103.75;;;45.08;;
12597;SDS011;6364;53.590;9.956;2022-10-31T04:50:36;104.50;;;44.83;;
12597;SDS011;6364;53.590;9.956;2022-10-31T04:53:01;103.40;;;43.63;;
12597;SDS011;6364;53.590;9.956;2022-10-31T04:55:26;108.65;;;43.13;;
12597;SDS011;6364;53.590;9.956;2022-10-31T04:57:52;110.85;;;43.42;;
12597;SDS011;6364;53.590;9.956;2022-10-31T05:00:18;95.68;;;42.25;;
12597;SDS011;6364;53.590;9.956;2022-10-31T05:02:45;103.50;;;44.33;;
12597;SDS011;6364;53.590;9.956;2022-10-31T05:05:11;105.50;;;42.53;;
12597;SDS011;6364;53.590;9.956;2022-10-31T05:07:38;104.80;;;43.03;;
12597;SDS011;6364;53.590;9.956;2022-10-31T05:10:07;97.93;;;41.45;;
12597;SDS011;6364;53.590;9.956;2022-10-31T05:12:34;91.13;;;40.35;;
12597;SDS011;6364;53.590;9.956;2022-10-31T05:15:00;100.82;;;41.13;;
12597;SDS011;6364;53.590;9.956;2022-10-31T05:17:25;92.53;;;40.17;;
12597;SDS011;6364;53.590;9.956;2022-10-31T05:19:50;96.47;;;39.55;;
12597;SDS011;6364;53.590;9.956;2022-10-31T05:22:16;97.00;;;39.95;;
12597;SDS011;6364;53.590;9.956;2022-10-31T05:24:41;96.45;;;39.08;;
12597;SDS011;6364;53.590;9.956;2022-10-31T05:27:06;103.53;;;40.72;;
12597;SDS011;6364;53.590;9.956;2022-10-31T05:29:31;96.82;;;40.95;;
12597;SDS011;6364;53.590;9.956;2022-10-31T05:31:58;100.65;;;40.97;;
12597;SDS011;6364;53.590;9.956;2022-10-31T05:34:24;96.10;;;39.20;;
12597;SDS011;6364;53.590;9.956;2022-10-31T05:36:49;101.53;;;40.22;;
12597;SDS011;6364;53.590;9.956;2022-10-31T05:39:14;98.57;;;38.72;;
12597;SDS011;6364;53.590;9.956;2022-10-31T05:41:39;100.20;;;38.85;;
12597;SDS011;6364;53.590;9.956;2022-10-31T05:44:05;105.43;;;39.10;;
12597;SDS011;6364;53.590;9.956;2022-10-31T05:46:30;106.20;;;39.17;;
12597;SDS011;6364;53.590;9.956;2022-10-31T05:48:55;101.95;;;38.33;;
12597;SDS011;6364;53.590;9.956;2022-10-31T05:51:21;107.25;;;38.97;;
12597;SDS011;6364;53.590;9.956;2022-10-31T05:53:46;107.50;;;38.20;;
12597;SDS011;6364;53.590;9.956;2022-10-31T05:56:12;100.82;;;37.70;;
12597;SDS011;6364;53.590;9.956;2022-10-31T05:58:37;105.57;;;37.88;;
12597;SDS011;6364;53.590;9.956;2022-10-31T06:01:02;108.50;;;38.42;;
12597;SDS011;6364;53.590;9.956;2022-10-31T06:03:28;114.05;;;38.58;;
12597;SDS011;6364;53.590;9.956;2022-10-31T06:05:53;112.53;;;38.75;;
12597;SDS011;6364;53.590;9.956;2022-10-31T06:08:18;108.43;;;39.30;;
12597;SDS011;6364;53.590;9.956;2022-10-31T06:10:44;105.95;;;38.17;;
12597;SDS011;6364;53.590;9.956;2022-10-31T06:13:09;106.90;;;38.22;;
12597;SDS011;6364;53.590;9.956;2022-10-31T06:15:34;101.88;;;38.88;;
12597;SDS011;6364;53.590;9.956;2022-10-31T06:18:00;116.05;;;40.05;;
12597;SDS011;6364;53.590;9.956;2022-10-31T06:20:27;120.38;;;39.22;;
12597;SDS011;6364;53.590;9.956;2022-10-31T06:22:52;116.35;;;38.67;;
12597;SDS011;6364;53.590;9.956;2022-10-31T06:25:17;121.93;;;40.05;;
12597;SDS011;6364;53.590;9.956;2022-10-31T06:27:43;112.68;;;38.72;;
12597;SDS011;6364;53.590;9.956;2022-10-31T06:30:08;101.60;;;38.58;;
12597;SDS011;6364;53.590;9.956;2022-10-31T06:32:34;112.72;;;39.03;;
12597;SDS011;6364;53.590;9.956;2022-10-31T06:34:59;101.60;;;38.42;;
12597;SDS011;6364;53.590;9.956;2022-10-31T06:37:24;114.07;;;38.78;;
12597;SDS011;6364;53.590;9.956;2022-10-31T06:39:50;109.10;;;38.65;;
12597;SDS011;6364;53.590;9.956;2022-10-31T06:42:15;110.03;;;39.90;;
12597;SDS011;6364;53.590;9.956;2022-10-31T06:44:41;109.28;;;38.10;;
12597;SDS011;6364;53.590;9.956;2022-10-31T06:47:06;116.15;;;41.42;;
12597;SDS011;6364;53.590;9.956;2022-10-31T06:49:31;101.03;;;39.10;;
12597;SDS011;6364;53.590;9.956;2022-10-31T06:51:57;104.18;;;39.17;;
12597;SDS011;6364;53.590;9.956;2022-10-31T06:54:22;116.32;;;40.15;;
12597;SDS011;6364;53.590;9.956;2022-10-31T06:56:48;102.95;;;38.72;;
12597;SDS011;6364;53.590;9.956;2022-10-31T06:59:13;108.60;;;40.28;;
12597;SDS011;6364;53.590;9.956;2022-10-31T07:01:39;119.45;;;39.90;;
12597;SDS011;6364;53.590;9.956;2022-10-31T07:04:04;116.30;;;39.50;;
12597;SDS011;6364;53.590;9.956;2022-10-31T07:06:30;113.78;;;41.10;;
12597;SDS011;6364;53.590;9.956;2022-10-31T07:08:55;114.82;;;43.10;;
12597;SDS011;6364;53.590;9.956;2022-10-31T07:11:20;109.35;;;41.75;;
12597;SDS011;6364;53.590;9.956;2022-10-31T07:13:45;102.03;;;41.47;;
12597;SDS011;6364;53.590;9.956;2022-10-31T07:16:11;105.10;;;41.35;;
12597;SDS011;6364;53.590;9.956;2022-10-31T07:18:37;95.80;;;39.25;;
12597;SDS011;6364;53.590;9.956;2022-10-31T07:21:03;107.70;;;38.35;;
12597;SDS011;6364;53.590;9.956;2022-10-31T07:23:29;108.07;;;37.30;;
12597;SDS011;6364;53.590;9.956;2022-10-31T07:25:55;97.15;;;36.47;;
12597;SDS011;6364;53.590;9.956;2022-10-31T07:28:21;99.90;;;32.97;;
12597;SDS011;6364;53.590;9.956;2022-10-31T07:30:50;74.30;;;32.85;;
12597;SDS011;6364;53.590;9.956;2022-10-31T07:33:16;78.75;;;33.38;;
12597;SDS011;6364;53.590;9.956;2022-10-31T07:35:41;110.53;;;31.30;;
12597;SDS011;6364;53.590;9.956;2022-10-31T07:38:07;103.55;;;33.45;;
12597;SDS011;6364;53.590;9.956;2022-10-31T07:40:35;97.53;;;32.03;;
12597;SDS011;6364;53.590;9.956;2022-10-31T07:43:00;119.38;;;31.45;;
12597;SDS011;6364;53.590;9.956;2022-10-31T07:45:25;109.18;;;31.02;;
12597;SDS011;6364;53.590;9.956;2022-10-31T07:47:51;88.72;;;30.83;;
12597;SDS011;6364;53.590;9.956;2022-10-31T07:50:21;66.00;;;28.48;;
12597;SDS011;6364;53.590;9.956;2022-10-31T07:52:48;73.60;;;30.58;;
12597;SDS011;6364;53.590;9.956;2022-10-31T07:55:14;76.10;;;29.23;;
12597;SDS011;6364;53.590;9.956;2022-10-31T07:57:39;94.68;;;30.63;;
12597;SDS011;6364;53.590;9.956;2022-10-31T08:00:06;65.93;;;30.88;;
12597;SDS011;6364;53.590;9.956;2022-10-31T08:02:33;89.38;;;31.52;;
12597;SDS011;6364;53.590;9.956;2022-10-31T08:04:58;97.18;;;31.10;;
12597;SDS011;6364;53.590;9.956;2022-10-31T08:07:24;95.28;;;30.45;;
12597;SDS011;6364;53.590;9.956;2022-10-31T08:09:50;101.20;;;31.15;;
12597;SDS011;6364;53.590;9.956;2022-10-31T08:12:15;101.35;;;31.15;;
12597;SDS011;6364;53.590;9.956;2022-10-31T08:14:40;71.43;;;29.20;;
12597;SDS011;6364;53.590;9.956;2022-10-31T08:17:06;81.22;;;31.02;;
12597;SDS011;6364;53.590;9.956;2022-10-31T08:19:31;80.03;;;31.40;;
12597;SDS011;6364;53.590;9.956;2022-10-31T08:21:56;85.10;;;29.58;;
12597;SDS011;6364;53.590;9.956;2022-10-31T08:24:23;64.80;;;29.65;;
12597;SDS011;6364;53.590;9.956;2022-10-31T08:26:48;68.10;;;29.88;;
12597;SDS011;6364;53.590;9.956;2022-10-31T08:29:13;63.88;;;27.90;;
12597;SDS011;6364;53.590;9.956;2022-10-31T08:31:39;63.97;;;26.70;;
12597;SDS011;6364;53.590;9.956;2022-10-31T08:34:05;62.72;;;25.55;;
12597;SDS011;6364;53.590;9.956;2022-10-31T08:36:30;63.75;;;26.20;;
12597;SDS011;6364;53.590;9.956;2022-10-31T08:38:56;56.67;;;26.23;;
12597;SDS011;6364;53.590;9.956;2022-10-31T08:41:21;64.00;;;25.20;;
12597;SDS011;6364;53.590;9.956;2022-10-31T08:43:46;66.65;;;25.35;;
12597;SDS011;6364;53.590;9.956;2022-10-31T08:46:12;50.72;;;24.60;;
12597;SDS011;6364;53.590;9.956;2022-10-31T08:48:37;62.60;;;25.10;;
12597;SDS011;6364;53.590;9.956;2022-10-31T08:51:03;75.50;;;25.08;;
12597;SDS011;6364;53.590;9.956;2022-10-31T08:53:28;52.55;;;23.55;;
12597;SDS011;6364;53.590;9.956;2022-10-31T08:55:54;52.13;;;24.55;;
12597;SDS011;6364;53.590;9.956;2022-10-31T08:58:20;51.72;;;24.35;;
12597;SDS011;6364;53.590;9.956;2022-10-31T09:00:47;51.03;;;24.77;;
12597;SDS011;6364;53.590;9.956;2022-10-31T09:03:31;50.55;;;25.83;;
12597;SDS011;6364;53.590;9.956;2022-10-31T09:06:00;53.55;;;25.63;;
12597;SDS011;6364;53.590;9.956;2022-10-31T09:08:28;55.08;;;25.98;;
12597;SDS011;6364;53.590;9.956;2022-10-31T09:10:56;47.67;;;23.98;;
12597;SDS011;6364;53.590;9.956;2022-10-31T09:13:22;55.78;;;23.25;;
12597;SDS011;6364;53.590;9.956;2022-10-31T09:15:48;53.85;;;25.08;;
12597;SDS011;6364;53.590;9.956;2022-10-31T09:18:15;53.33;;;24.42;;
12597;SDS011;6364;53.590;9.956;2022-10-31T09:20:42;53.58;;;24.95;;
12597;SDS011;6364;53.590;9.956;2022-10-31T09:25:40;55.83;;;25.80;;
12597;SDS011;6364;53.590;9.956;2022-10-31T09:28:05;51.25;;;25.25;;
12597;SDS011;6364;53.590;9.956;2022-10-31T09:30:32;55.40;;;25.55;;
12597;SDS011;6364;53.590;9.956;2022-10-31T09:33:02;49.45;;;24.30;;
12597;SDS011;6364;53.590;9.956;2022-10-31T09:35:29;61.63;;;27.77;;
12597;SDS011;6364;53.590;9.956;2022-10-31T09:37:57;61.03;;;26.15;;
12597;SDS011;6364;53.590;9.956;2022-10-31T09:40:24;57.53;;;25.60;;
12597;SDS011;6364;53.590;9.956;2022-10-31T09:43:41;57.63;;;25.05;;
12597;SDS011;6364;53.590;9.956;2022-10-31T09:45:52;57.47;;;25.80;;
12597;SDS011;6364;53.590;9.956;2022-10-31T09:51:22;62.05;;;26.77;;
12597;SDS011;6364;53.590;9.956;2022-10-31T09:53:54;54.42;;;25.77;;
12597;SDS011;6364;53.590;9.956;2022-10-31T09:56:23;54.70;;;25.73;;
12597;SDS011;6364;53.590;9.956;2022-10-31T09:58:51;64.60;;;27.55;;
12597;SDS011;6364;53.590;9.956;2022-10-31T10:04:32;52.30;;;27.30;;
12597;SDS011;6364;53.590;9.956;2022-10-31T10:07:17;50.83;;;25.95;;
12597;SDS011;6364;53.590;9.956;2022-10-31T10:09:44;46.15;;;23.40;;
12597;SDS011;6364;53.590;9.956;2022-10-31T10:12:13;40.80;;;20.90;;
12597;SDS011;6364;53.590;9.956;2022-10-31T10:15:06;49.03;;;21.13;;
12597;SDS011;6364;53.590;9.956;2022-10-31T10:17:42;42.85;;;20.75;;
12597;SDS011;6364;53.590;9.956;2022-10-31T10:20:26;43.47;;;21.17;;
12597;SDS011;6364;53.590;9.956;2022-10-31T10:26:02;37.85;;;18.65;;
12597;SDS011;6364;53.590;9.956;2022-10-31T10:28:33;35.95;;;20.02;;
12597;SDS011;6364;53.590;9.956;2022-10-31T10:33:44;42.78;;;21.80;;
12597;SDS011;6364;53.590;9.956;2022-10-31T10:36:32;46.55;;;22.02;;
12597;SDS011;6364;53.590;9.956;2022-10-31T10:39:07;41.85;;;21.05;;
12597;SDS011;6364;53.590;9.956;2022-10-31T10:41:39;39.17;;;20.60;;
12597;SDS011;6364;53.590;9.956;2022-10-31T10:44:10;43.22;;;19.85;;
12597;SDS011;6364;53.590;9.956;2022-10-31T10:46:42;36.38;;;19.52;;
12597;SDS011;6364;53.590;9.956;2022-10-31T10:49:44;38.95;;;17.85;;
12597;SDS011;6364;53.590;9.956;2022-10-31T10:55:03;39.88;;;17.80;;
12597;SDS011;6364;53.590;9.956;2022-10-31T11:00:03;30.50;;;17.30;;
12597;SDS011;6364;53.590;9.956;2022-10-31T11:02:50;26.02;;;16.50;;
12597;SDS011;6364;53.590;9.956;2022-10-31T11:07:53;30.38;;;16.02;;
12597;SDS011;6364;53.590;9.956;2022-10-31T11:10:18;28.15;;;14.88;;
12597;SDS011;6364;53.590;9.956;2022-10-31T11:12:45;30.45;;;16.70;;
12597;SDS011;6364;53.590;9.956;2022-10-31T11:15:23;31.55;;;16.40;;
12597;SDS011;6364;53.590;9.956;2022-10-31T11:17:50;30.17;;;17.02;;
12597;SDS011;6364;53.590;9.956;2022-10-31T11:22:43;34.00;;;17.90;;
12597;SDS011;6364;53.590;9.956;2022-10-31T11:27:44;30.65;;;16.70;;
12597;SDS011;6364;53.590;9.956;2022-10-31T11:30:09;32.13;;;15.95;;
12597;SDS011;6364;53.590;9.956;2022-10-31T11:32:39;26.23;;;16.25;;
12597;SDS011;6364;53.590;9.956;2022-10-31T11:35:09;31.40;;;17.38;;
12597;SDS011;6364;53.590;9.956;2022-10-31T11:37:40;29.45;;;17.70;;
12597;SDS011;6364;53.590;9.956;2022-10-31T11:40:14;31.05;;;17.45;;
12597;SDS011;6364;53.590;9.956;2022-10-31T11:42:41;31.00;;;16.95;;
12597;SDS011;6364;53.590;9.956;2022-10-31T11:45:13;28.83;;;17.65;;
12597;SDS011;6364;53.590;9.956;2022-10-31T11:47:40;27.80;;;17.17;;
12597;SDS011;6364;53.590;9.956;2022-10-31T11:50:10;27.42;;;16.10;;
12597;SDS011;6364;53.590;9.956;2022-10-31T11:52:37;37.60;;;25.13;;
12597;SDS011;6364;53.590;9.956;2022-10-31T12:00:24;42.47;;;27.85;;
12597;SDS011;6364;53.590;9.956;2022-10-31T12:03:04;40.00;;;26.88;;
12597;SDS011;6364;53.590;9.956;2022-10-31T12:05:36;41.13;;;27.60;;
12597;SDS011;6364;53.590;9.956;2022-10-31T12:08:02;41.22;;;27.35;;
12597;SDS011;6364;53.590;9.956;2022-10-31T12:10:31;45.42;;;28.45;;
12597;SDS011;6364;53.590;9.956;2022-10-31T12:13:08;42.17;;;26.23;;
12597;SDS011;6364;53.590;9.956;2022-10-31T12:15:45;43.70;;;28.63;;
12597;SDS011;6364;53.590;9.956;2022-10-31T12:18:42;47.13;;;30.48;;
12597;SDS011;6364;53.590;9.956;2022-10-31T12:27:17;44.30;;;28.60;;
12597;SDS011;6364;53.590;9.956;2022-10-31T12:30:12;49.28;;;28.75;;
12597;SDS011;6364;53.590;9.956;2022-10-31T12:32:47;50.10;;;28.95;;
12597;SDS011;6364;53.590;9.956;2022-10-31T12:35:53;49.28;;;28.13;;
12597;SDS011;6364;53.590;9.956;2022-10-31T12:39:02;46.22;;;27.75;;
12597;SDS011;6364;53.590;9.956;2022-10-31T12:41:43;50.45;;;28.23;;
12597;SDS011;6364;53.590;9.956;2022-10-31T12:44:38;46.58;;;26.85;;
12597;SDS011;6364;53.590;9.956;2022-10-31T12:52:21;43.90;;;25.67;;
12597;SDS011;6364;53.590;9.956;2022-10-31T12:57:39;43.60;;;25.17;;
12597;SDS011;6364;53.590;9.956;2022-10-31T13:00:14;43.88;;;26.70;;
12597;SDS011;6364;53.590;9.956;2022-10-31T13:08:09;44.13;;;26.52;;
12597;SDS011;6364;53.590;9.956;2022-10-31T13:10:42;49.22;;;28.15;;
12597;SDS011;6364;53.590;9.956;2022-10-31T13:13:19;50.05;;;28.63;;
12597;SDS011;6364;53.590;9.956;2022-10-31T13:15:58;57.50;;;31.23;;
12597;SDS011;6364;53.590;9.956;2022-10-31T13:18:38;58.15;;;31.83;;
12597;SDS011;6364;53.590;9.956;2022-10-31T13:21:08;53.20;;;29.60;;
12597;SDS011;6364;53.590;9.956;2022-10-31T13:23:37;48.78;;;28.13;;
12597;SDS011;6364;53.590;9.956;2022-10-31T13:26:10;51.83;;;30.23;;
12597;SDS011;6364;53.590;9.956;2022-10-31T13:28:52;53.42;;;29.08;;
12597;SDS011;6364;53.590;9.956;2022-10-31T13:31:21;48.60;;;28.63;;
12597;SDS011;6364;53.590;9.956;2022-10-31T13:33:48;44.15;;;27.58;;
12597;SDS011;6364;53.590;9.956;2022-10-31T13:41:48;48.08;;;28.33;;
12597;SDS011;6364;53.590;9.956;2022-10-31T13:44:23;45.30;;;26.67;;
12597;SDS011;6364;53.590;9.956;2022-10-31T13:46:50;42.25;;;25.85;;
12597;SDS011;6364;53.590;9.956;2022-10-31T13:54:39;37.40;;;23.17;;
12597;SDS011;6364;53.590;9.956;2022-10-31T13:57:16;38.97;;;23.38;;
12597;SDS011;6364;53.590;9.956;2022-10-31T13:59:56;37.35;;;22.60;;
12597;SDS011;6364;53.590;9.956;2022-10-31T14:02:27;37.05;;;23.55;;
12597;SDS011;6364;53.590;9.956;2022-10-31T14:04:55;39.85;;;22.75;;
12597;SDS011;6364;53.590;9.956;2022-10-31T14:07:23;34.53;;;21.15;;
12597;SDS011;6364;53.590;9.956;2022-10-31T14:15:24;34.65;;;19.85;;
12597;SDS011;6364;53.590;9.956;2022-10-31T14:17:54;27.30;;;18.13;;
12597;SDS011;6364;53.590;9.956;2022-10-31T14:22:49;29.17;;;18.35;;
12597;SDS011;6364;53.590;9.956;2022-10-31T14:25:24;27.42;;;17.83;;
12597;SDS011;6364;53.590;9.956;2022-10-31T14:27:54;32.80;;;19.02;;
12597;SDS011;6364;53.590;9.956;2022-10-31T14:30:21;29.58;;;17.52;;
12597;SDS011;6364;53.590;9.956;2022-10-31T14:32:53;26.85;;;17.77;;
12597;SDS011;6364;53.590;9.956;2022-10-31T14:35:20;25.60;;;17.33;;
12597;SDS011;6364;53.590;9.956;2022-10-31T14:38:00;27.17;;;17.63;;
12597;SDS011;6364;53.590;9.956;2022-10-31T14:46:12;28.42;;;16.50;;
12597;SDS011;6364;53.590;9.956;2022-10-31T14:51:46;29.77;;;16.90;;
12597;SDS011;6364;53.590;9.956;2022-10-31T14:54:17;28.30;;;16.80;;
12597;SDS011;6364;53.590;9.956;2022-10-31T14:57:04;26.42;;;16.88;;
12597;SDS011;6364;53.590;9.956;2022-10-31T14:59:35;29.27;;;16.10;;
12597;SDS011;6364;53.590;9.956;2022-10-31T15:02:09;29.13;;;17.02;;
12597;SDS011;6364;53.590;9.956;2022-10-31T15:04:39;30.30;;;17.23;;
12597;SDS011;6364;53.590;9.956;2022-10-31T15:07:07;29.98;;;17.67;;
12597;SDS011;6364;53.590;9.956;2022-10-31T15:09:43;28.35;;;17.60;;
12597;SDS011;6364;53.590;9.956;2022-10-31T15:12:23;34.95;;;17.80;;
12597;SDS011;6364;53.590;9.956;2022-10-31T15:14:52;26.88;;;17.77;;
12597;SDS011;6364;53.590;9.956;2022-10-31T15:17:18;40.13;;;19.80;;
12597;SDS011;6364;53.590;9.956;2022-10-31T15:19:44;29.25;;;17.90;;
12597;SDS011;6364;53.590;9.956;2022-10-31T15:22:12;33.22;;;19.98;;
12597;SDS011;6364;53.590;9.956;2022-10-31T15:24:40;33.35;;;19.10;;
12597;SDS011;6364;53.590;9.956;2022-10-31T15:27:10;35.05;;;18.63;;
12597;SDS011;6364;53.590;9.956;2022-10-31T15:29:46;33.38;;;18.90;;
12597;SDS011;6364;53.590;9.956;2022-10-31T15:32:27;32.85;;;18.55;;
12597;SDS011;6364;53.590;9.956;2022-10-31T15:34:53;31.52;;;18.52;;
12597;SDS011;6364;53.590;9.956;2022-10-31T15:37:21;34.78;;;19.92;;
12597;SDS011;6364;53.590;9.956;2022-10-31T15:39:49;34.58;;;19.52;;
12597;SDS011;6364;53.590;9.956;2022-10-31T15:42:19;29.90;;;19.20;;
12597;SDS011;6364;53.590;9.956;2022-10-31T15:44:45;32.72;;;18.85;;
12597;SDS011;6364;53.590;9.956;2022-10-31T15:47:16;37.00;;;19.15;;
12597;SDS011;6364;53.590;9.956;2022-10-31T15:49:52;36.30;;;19.38;;
12597;SDS011;6364;53.590;9.956;2022-10-31T15:54:53;36.40;;;19.85;;
12597;SDS011;6364;53.590;9.956;2022-10-31T15:57:22;31.80;;;19.17;;
12597;SDS011;6364;53.590;9.956;2022-10-31T15:59:48;38.92;;;19.13;;
12597;SDS011;6364;53.590;9.956;2022-10-31T16:02:17;34.42;;;19.08;;
12597;SDS011;6364;53.590;9.956;2022-10-31T16:04:50;35.63;;;20.15;;
12597;SDS011;6364;53.590;9.956;2022-10-31T16:07:24;35.65;;;20.67;;
12597;SDS011;6364;53.590;9.956;2022-10-31T16:12:20;35.15;;;19.98;;
12597;SDS011;6364;53.590;9.956;2022-10-31T16:14:46;36.13;;;20.13;;
12597;SDS011;6364;53.590;9.956;2022-10-31T16:17:12;37.40;;;19.88;;
12597;SDS011;6364;53.590;9.956;2022-10-31T16:19:50;35.53;;;20.50;;
12597;SDS011;6364;53.590;9.956;2022-10-31T16:22:22;34.25;;;18.40;;
12597;SDS011;6364;53.590;9.956;2022-10-31T16:25:15;33.75;;;18.23;;
12597;SDS011;6364;53.590;9.956;2022-10-31T16:27:50;39.20;;;18.67;;
12597;SDS011;6364;53.590;9.956;2022-10-31T16:30:50;37.17;;;18.70;;
12597;SDS011;6364;53.590;9.956;2022-10-31T16:35:51;32.88;;;17.00;;
12597;SDS011;6364;53.590;9.956;2022-10-31T16:38:17;36.40;;;18.63;;
12597;SDS011;6364;53.590;9.956;2022-10-31T16:40:42;40.47;;;18.98;;
12597;SDS011;6364;53.590;9.956;2022-10-31T16:43:09;32.80;;;17.50;;
12597;SDS011;6364;53.590;9.956;2022-10-31T16:45:37;39.58;;;19.55;;
12597;SDS011;6364;53.590;9.956;2022-10-31T16:48:11;40.58;;;18.27;;